Time;durP1;ratioP1;P1;durP2;ratioP2;P2;SDS_P1;SDS_P2;PMS_P1;PMS_P2;Temp;Humidity;BMP_temperature;BMP_pressure;BME280_temperature;BME280_humidity;BME280_pressure;Samples;Min_cycle;Max_cycle;Signal;HPM_P1;HPM_P2
2021/07/08 00:00:24;;;;;;;;;2.75;2.75;;;;;-145.01;100.00;59511.53;5098597;27;46448;-77
2021/07/08 00:02:50;;;;;;;;;3.00;3.00;;;;;-145.01;100.00;59511.53;5098315;27;45420;-78
2021/07/08 00:05:17;;;;;;;;;2.67;1.33;;;;;-145.01;100.00;59511.53;5098589;27;45316;-76
2021/07/08 00:07:42;;;;;;;;;4.00;3.00;;;;;-145.01;100.00;59511.53;5098826;27;45442;-79
2021/07/08 00:10:12;;;;;;;;;5.00;2.67;;;;;-145.01;100.00;59511.53;5097714;27;46528;-77
2021/07/08 00:12:38;;;;;;;;;4.25;2.50;;;;;-145.01;100.00;59511.53;5097715;27;45385;-77
2021/07/08 00:15:08;;;;;;;;;3.75;2.75;;;;;-145.01;100.00;59511.53;5098451;27;45523;-77
2021/07/08 00:17:34;;;;;;;;;3.50;3.50;;;;;-145.01;100.00;59511.53;5097996;27;45333;-77
2021/07/08 00:19:59;;;;;;;;;2.00;2.00;;;;;-145.01;100.00;59511.53;5098368;27;46378;-77
2021/07/08 00:22:24;;;;;;;;;3.00;3.00;;;;;-145.01;100.00;59511.53;5098111;27;45693;-77
2021/07/08 00:24:50;;;;;;;;;4.00;4.00;;;;;-145.01;100.00;59511.53;5097568;27;45496;-76
2021/07/08 00:27:15;;;;;;;;;2.33;2.33;;;;;-145.01;100.00;59511.53;5097815;27;45400;-76
2021/07/08 00:29:40;;;;;;;;;4.25;3.00;;;;;-145.01;100.00;59511.53;5097767;27;46346;-77
2021/07/08 00:32:06;;;;;;;;;3.25;3.25;;;;;-145.01;100.00;59511.53;5100661;27;45478;-77
2021/07/08 00:34:31;;;;;;;;;5.00;4.00;;;;;-145.01;100.00;59511.53;5098192;27;45515;-78
2021/07/08 00:36:57;;;;;;;;;2.75;2.75;;;;;-145.01;100.00;59511.53;5097634;27;45453;-77
2021/07/08 00:39:22;;;;;;;;;5.00;4.00;;;;;-145.01;100.00;59511.53;5098121;27;45816;-78
2021/07/08 00:41:47;;;;;;;;;2.00;2.00;;;;;-145.01;100.00;59511.53;5097704;27;45315;-77
2021/07/08 00:44:13;;;;;;;;;3.00;3.00;;;;;-145.01;100.00;59511.53;5098162;27;45228;-80
2021/07/08 00:46:38;;;;;;;;;6.00;4.00;;;;;-145.01;100.00;59511.53;5098597;27;45373;-80
2021/07/08 00:49:03;;;;;;;;;3.75;3.75;;;;;-145.01;100.00;59511.53;5097452;27;45281;-80
2021/07/08 00:51:29;;;;;;;;;4.00;4.00;;;;;-145.01;100.00;59511.53;5079562;27;45383;-79
2021/07/08 00:53:54;;;;;;;;;2.25;2.00;;;;;-145.01;100.00;59511.53;5098361;27;45753;-80
2021/07/08 00:56:19;;;;;;;;;3.75;3.75;;;;;-145.01;100.00;59511.53;5097720;27;45360;-80
2021/07/08 00:59:00;;;;;;;;;3.00;3.00;;;;;-145.01;100.00;59511.53;5097836;27;45756;-80
2021/07/08 01:01:25;;;;;;;;;2.00;2.00;;;;;-145.01;100.00;59511.53;5097832;27;45434;-80
2021/07/08 01:03:52;;;;;;;;;5.00;4.00;;;;;-145.01;100.00;59511.53;5097016;27;45301;-79
2021/07/08 01:06:18;;;;;;;;;3.00;3.00;;;;;-145.01;100.00;59511.53;5097341;27;45514;-79
2021/07/08 01:08:44;;;;;;;;;4.75;4.75;;;;;-145.01;100.00;59511.53;5097184;27;46320;-76
2021/07/08 01:11:09;;;;;;;;;4.00;4.00;;;;;-145.01;100.00;59511.53;5097424;27;45406;-77
2021/07/08 01:13:35;;;;;;;;;5.00;3.75;;;;;-145.01;100.00;59511.53;5097713;27;45493;-77
2021/07/08 01:16:00;;;;;;;;;4.50;4.00;;;;;-145.01;100.00;59511.53;5075206;28;45395;-77
2021/07/08 01:18:26;;;;;;;;;5.00;5.00;;;;;-145.01;100.00;59511.53;5096349;27;45913;-77
2021/07/08 01:20:51;;;;;;;;;3.00;3.00;;;;;-145.01;100.00;59511.53;5097341;27;45499;-76
2021/07/08 01:23:16;;;;;;;;;2.75;2.75;;;;;-145.01;100.00;59511.53;5079337;27;45494;-76
2021/07/08 01:25:42;;;;;;;;;3.75;3.75;;;;;-145.01;100.00;59511.53;5097145;27;45328;-77
2021/07/08 01:28:09;;;;;;;;;3.00;3.00;;;;;-145.01;100.00;59511.53;5095706;27;46235;-77
2021/07/08 01:30:35;;;;;;;;;2.00;2.00;;;;;-145.01;100.00;59511.53;5097207;27;45516;-76
2021/07/08 01:33:05;;;;;;;;;3.50;3.50;;;;;-145.01;100.00;59511.53;5096908;27;45352;-77
2021/07/08 01:35:30;;;;;;;;;6.50;3.50;;;;;-145.01;100.00;59511.53;5097062;27;45322;-77
2021/07/08 01:37:56;;;;;;;;;3.25;3.25;;;;;-145.01;100.00;59511.53;5097160;27;47021;-77
2021/07/08 01:40:22;;;;;;;;;3.00;3.00;;;;;-145.01;100.00;59511.53;5096475;27;45382;-77
2021/07/08 01:42:47;;;;;;;;;1.00;1.00;;;;;-145.01;100.00;59511.53;5096681;27;45427;-76
2021/07/08 01:45:15;;;;;;;;;3.25;3.25;;;;;-145.01;100.00;59511.53;5097418;27;45562;-76
2021/07/08 01:47:43;;;;;;;;;2.25;2.00;;;;;-145.01;100.00;59511.53;5097030;27;46375;-76
2021/07/08 01:50:12;;;;;;;;;3.00;3.00;;;;;-145.01;100.00;59511.53;5097011;27;45437;-76
2021/07/08 01:52:37;;;;;;;;;3.00;3.00;;;;;-145.01;100.00;59511.53;5096801;27;45368;-77
2021/07/08 01:55:03;;;;;;;;;3.75;3.50;;;;;-145.01;100.00;59511.53;5095989;27;45334;-77
2021/07/08 01:57:28;;;;;;;;;6.50;5.00;;;;;-145.01;100.00;59511.53;5097052;27;45390;-77
2021/07/08 01:59:53;;;;;;;;;3.50;3.00;;;;;-145.01;100.00;59511.53;5078254;27;45541;-76
2021/07/08 02:02:19;;;;;;;;;5.50;4.00;;;;;-145.01;100.00;59511.53;5078594;27;45433;-77
2021/07/08 02:04:44;;;;;;;;;5.75;5.50;;;;;-145.01;100.00;59511.53;5096952;27;45323;-76
2021/07/08 02:07:10;;;;;;;;;3.75;3.75;;;;;-145.01;100.00;59511.53;5096288;27;46066;-76
2021/07/08 02:09:35;;;;;;;;;5.00;3.50;;;;;-145.01;100.00;59511.53;5096393;27;45457;-77
2021/07/08 02:12:01;;;;;;;;;3.50;2.75;;;;;-145.01;100.00;59511.53;5096757;27;45390;-77
2021/07/08 02:14:28;;;;;;;;;2.75;2.75;;;;;-145.01;100.00;59511.53;5096758;27;45365;-76
2021/07/08 02:16:55;;;;;;;;;5.00;3.00;;;;;-145.01;100.00;59511.53;5096614;27;46227;-76
2021/07/08 02:19:20;;;;;;;;;4.00;3.00;;;;;-145.01;100.00;59511.53;5096200;27;45449;-77
2021/07/08 02:21:47;;;;;;;;;4.50;4.50;;;;;-145.01;100.00;59511.53;5096628;27;45399;-76
2021/07/08 02:24:12;;;;;;;;;4.25;3.00;;;;;-145.01;100.00;59511.53;5096336;27;45541;-77
2021/07/08 02:26:37;;;;;;;;;4.25;3.25;;;;;-145.01;100.00;59511.53;5096238;27;45444;-77
2021/07/08 02:29:03;;;;;;;;;3.25;2.50;;;;;-145.01;100.00;59511.53;5096591;27;45315;-77
2021/07/08 02:31:28;;;;;;;;;2.00;2.00;;;;;-145.01;100.00;59511.53;5096386;27;45298;-77
2021/07/08 02:33:53;;;;;;;;;3.00;3.00;;;;;-145.01;100.00;59511.53;5095637;27;45328;-77
2021/07/08 02:36:19;;;;;;;;;4.00;4.00;;;;;-145.01;100.00;59511.53;5074540;27;46982;-76
2021/07/08 02:38:44;;;;;;;;;5.50;5.50;;;;;-145.01;100.00;59511.53;5088725;27;45397;-77
2021/07/08 02:41:09;;;;;;;;;4.50;3.50;;;;;-145.01;100.00;59511.53;5100034;27;45542;-77
2021/07/08 02:43:35;;;;;;;;;5.50;4.75;;;;;-145.01;100.00;59511.53;5100121;27;45373;-77
2021/07/08 02:46:00;;;;;;;;;3.00;3.00;;;;;-145.01;100.00;59511.53;5099402;27;45409;-77
2021/07/08 02:48:26;;;;;;;;;4.00;4.00;;;;;-145.01;100.00;59511.53;5099666;27;45441;-76
2021/07/08 02:50:54;;;;;;;;;3.00;3.00;;;;;-145.01;100.00;59511.53;5099743;27;45402;-76
2021/07/08 02:53:20;;;;;;;;;5.00;4.00;;;;;-145.01;100.00;59511.53;5099008;27;45511;-77
2021/07/08 02:55:47;;;;;;;;;4.00;4.00;;;;;-145.01;100.00;59511.53;5099184;27;45899;-76
2021/07/08 02:58:13;;;;;;;;;4.75;3.00;;;;;-145.01;100.00;59511.53;5098587;27;45435;-76
2021/07/08 03:00:38;;;;;;;;;7.00;4.25;;;;;-145.01;100.00;59511.53;5099455;27;45307;-77
2021/07/08 03:03:04;;;;;;;;;6.00;4.75;;;;;-145.01;100.00;59511.53;5080968;27;45370;-77
2021/07/08 03:05:30;;;;;;;;;8.00;4.00;;;;;-145.01;100.00;59511.53;5099409;27;46111;-77
2021/07/08 03:07:57;;;;;;;;;6.50;6.50;;;;;-145.01;100.00;59511.53;5099326;27;45530;-76
2021/07/08 03:10:24;;;;;;;;;6.75;4.00;;;;;-145.01;100.00;59511.53;5099122;27;45438;-76
2021/07/08 03:12:50;;;;;;;;;3.75;3.75;;;;;-145.01;100.00;59511.53;5098821;27;45521;-77
2021/07/08 03:15:16;;;;;;;;;4.00;4.00;;;;;-145.01;100.00;59511.53;5098942;27;47033;-77
2021/07/08 03:17:42;;;;;;;;;3.25;3.25;;;;;-145.01;100.00;59511.53;5080733;27;45457;-77
2021/07/08 03:20:14;;;;;;;;;4.25;4.00;;;;;-145.01;100.00;59511.53;5099578;27;45363;-76
2021/07/08 03:22:40;;;;;;;;;5.25;4.50;;;;;-145.01;100.00;59511.53;5082488;27;45280;-77
2021/07/08 03:25:07;;;;;;;;;5.00;5.00;;;;;-145.01;100.00;59511.53;5098160;27;46190;-76
2021/07/08 03:27:32;;;;;;;;;5.00;4.00;;;;;-145.01;100.00;59511.53;5098359;27;45370;-77
2021/07/08 03:29:58;;;;;;;;;6.50;5.00;;;;;-145.01;100.00;59511.53;5099053;27;45712;-76
2021/07/08 03:32:23;;;;;;;;;4.00;4.00;;;;;-145.01;100.00;59511.53;5100893;27;45462;-76
2021/07/08 03:34:48;;;;;;;;;3.00;3.00;;;;;-145.01;100.00;59511.53;5099228;27;45432;-76
2021/07/08 03:37:14;;;;;;;;;6.25;4.75;;;;;-145.01;100.00;59511.53;5097813;27;45351;-77
2021/07/08 03:39:39;;;;;;;;;5.25;4.25;;;;;-145.01;100.00;59511.53;5099107;27;45334;-76
2021/07/08 03:42:05;;;;;;;;;5.25;5.00;;;;;-145.01;100.00;59511.53;5098192;27;45382;-76
2021/07/08 03:44:30;;;;;;;;;4.75;4.75;;;;;-145.01;100.00;59511.53;5098532;27;45418;-76
2021/07/08 03:46:55;;;;;;;;;3.25;3.25;;;;;-145.01;100.00;59511.53;5099168;27;45497;-76
2021/07/08 03:49:21;;;;;;;;;6.00;4.00;;;;;-145.01;100.00;59511.53;5098645;27;45271;-76
2021/07/08 03:51:46;;;;;;;;;3.25;3.25;;;;;-145.01;100.00;59511.53;5097284;27;45461;-76
2021/07/08 03:54:11;;;;;;;;;5.75;4.25;;;;;-145.01;100.00;59511.53;5080123;27;46161;-76
2021/07/08 03:56:37;;;;;;;;;4.25;4.25;;;;;-145.01;100.00;59511.53;5098347;27;45532;-77
2021/07/08 03:59:02;;;;;;;;;7.50;4.75;;;;;-145.01;100.00;59511.53;5098841;27;45366;-77
2021/07/08 04:01:27;;;;;;;;;5.00;5.00;;;;;-145.01;100.00;59511.53;5079128;27;45304;-77
2021/07/08 04:03:53;;;;;;;;;6.50;3.25;;;;;-145.01;100.00;59511.53;5100336;27;45306;-77
2021/07/08 04:06:19;;;;;;;;;4.75;4.50;;;;;-145.01;100.00;59511.53;5098558;27;45292;-77
2021/07/08 04:08:44;;;;;;;;;4.75;4.75;;;;;-145.01;100.00;59511.53;5098738;27;45504;-76
2021/07/08 04:11:10;;;;;;;;;4.00;4.00;;;;;-145.01;100.00;59511.53;5098350;27;45405;-76
2021/07/08 04:13:35;;;;;;;;;5.00;5.00;;;;;-145.01;100.00;59511.53;5098036;27;45517;-77
2021/07/08 04:16:00;;;;;;;;;6.50;5.50;;;;;-145.01;100.00;59511.53;5097483;27;45326;-77
2021/07/08 04:18:26;;;;;;;;;7.25;5.75;;;;;-145.01;100.00;59511.53;5097826;27;45549;-75
2021/07/08 04:20:51;;;;;;;;;5.50;4.25;;;;;-145.01;100.00;59511.53;5098032;27;45439;-76
2021/07/08 04:23:17;;;;;;;;;5.00;4.00;;;;;-145.01;100.00;59511.53;5098034;27;46041;-76
2021/07/08 04:25:43;;;;;;;;;6.50;6.50;;;;;-145.01;100.00;59511.53;5097779;27;45386;-76
2021/07/08 04:28:10;;;;;;;;;4.00;4.00;;;;;-145.01;100.00;59511.53;5097134;27;45425;-76
2021/07/08 04:30:37;;;;;;;;;4.25;4.25;;;;;-145.01;100.00;59511.53;5098029;27;45425;-76
2021/07/08 04:33:04;;;;;;;;;5.50;4.00;;;;;-145.01;100.00;59511.53;5097023;27;47207;-76
2021/07/08 04:35:39;;;;;;;;;4.00;4.00;;;;;-145.01;100.00;59511.53;5097080;27;45415;-76
2021/07/08 04:38:10;;;;;;;;;4.25;4.25;;;;;-145.01;100.00;59511.53;5097647;27;45528;-76
2021/07/08 04:40:37;;;;;;;;;7.25;5.50;;;;;-145.01;100.00;59511.53;5096711;27;45577;-76
2021/07/08 04:43:03;;;;;;;;;5.00;4.00;;;;;-145.01;100.00;59511.53;5095332;27;46018;-76
2021/07/08 04:45:31;;;;;;;;;3.25;3.25;;;;;-145.01;100.00;59511.53;5096344;27;45356;-76
2021/07/08 04:47:57;;;;;;;;;23.75;23.50;;;;;-145.01;100.00;59511.53;5096908;27;45501;-76
2021/07/08 04:50:24;;;;;;;;;5.00;5.00;;;;;-145.01;100.00;59511.53;5097036;27;45402;-75
2021/07/08 04:52:51;;;;;;;;;5.00;5.00;;;;;-145.01;100.00;59511.53;5098061;27;46194;-76
2021/07/08 04:55:21;;;;;;;;;4.50;4.50;;;;;-145.01;100.00;59511.53;5096567;27;45355;-76
2021/07/08 04:57:47;;;;;;;;;4.75;4.75;;;;;-145.01;100.00;59511.53;5098417;27;45381;-76
2021/07/08 05:00:15;;;;;;;;;5.25;4.75;;;;;-145.01;100.00;59511.53;5096831;27;45332;-78
2021/07/08 05:02:42;;;;;;;;;9.00;7.25;;;;;-145.01;100.00;59511.53;5096645;27;46457;-79
2021/07/08 05:05:09;;;;;;;;;12.00;12.00;;;;;-145.01;100.00;59511.53;5088598;27;45508;-81
2021/07/08 05:07:36;;;;;;;;;5.50;5.50;;;;;-145.01;100.00;59511.53;5089558;27;45432;-81
2021/07/08 05:10:05;;;;;;;;;8.50;5.00;;;;;-145.01;100.00;59511.53;5090557;27;45290;-81
2021/07/08 05:12:30;;;;;;;;;5.50;5.50;;;;;-145.01;100.00;59511.53;5092329;27;46271;-80
2021/07/08 05:14:55;;;;;;;;;5.75;5.50;;;;;-145.01;100.00;59511.53;5091742;27;45736;-80
2021/07/08 05:17:21;;;;;;;;;5.50;5.00;;;;;-145.01;100.00;59511.53;5082975;27;45475;-81
2021/07/08 05:19:46;;;;;;;;;4.50;4.25;;;;;-145.01;100.00;59511.53;5082353;27;45408;-77
2021/07/08 05:22:14;;;;;;;;;10.00;7.00;;;;;-145.01;100.00;59511.53;5086387;27;46901;-80
2021/07/08 05:24:40;;;;;;;;;12.75;9.50;;;;;-145.01;100.00;59511.53;5091169;27;45296;-80
2021/07/08 05:27:05;;;;;;;;;7.00;7.00;;;;;-145.01;100.00;59511.53;5091607;27;45546;-82
2021/07/08 05:29:31;;;;;;;;;7.00;7.00;;;;;-145.01;100.00;59511.53;5096673;27;45549;-80
2021/07/08 05:31:56;;;;;;;;;7.50;5.50;;;;;-145.01;100.00;59511.53;5097255;27;46340;-79
2021/07/08 05:34:22;;;;;;;;;8.25;6.75;;;;;-145.01;100.00;59511.53;5095247;27;45346;-78
2021/07/08 05:36:47;;;;;;;;;8.50;6.25;;;;;-145.01;100.00;59511.53;5077059;27;45464;-80
2021/07/08 05:39:13;;;;;;;;;7.75;6.50;;;;;-145.01;100.00;59511.53;5096505;27;45396;-80
2021/07/08 05:41:39;;;;;;;;;6.00;6.00;;;;;-145.01;100.00;59511.53;5096819;27;46916;-80
2021/07/08 05:44:05;;;;;;;;;5.75;5.75;;;;;-145.01;100.00;59511.53;5095784;27;45479;-80
2021/07/08 05:46:31;;;;;;;;;4.75;4.75;;;;;-145.01;100.00;59511.53;5096148;27;45312;-80
2021/07/08 05:48:56;;;;;;;;;5.75;5.75;;;;;-145.01;100.00;59511.53;5095210;27;45412;-80
2021/07/08 05:51:21;;;;;;;;;8.25;8.25;;;;;-145.01;100.00;59511.53;5095530;27;46968;-83
2021/07/08 05:53:47;;;;;;;;;7.50;7.50;;;;;-145.01;100.00;59511.53;5094942;27;45535;-79
2021/07/08 05:56:12;;;;;;;;;10.00;9.00;;;;;-145.01;100.00;59511.53;5095236;27;45469;-79
2021/07/08 05:58:37;;;;;;;;;10.50;8.25;;;;;-145.01;100.00;59511.53;5095590;27;45433;-84
2021/07/08 06:01:03;;;;;;;;;5.75;5.50;;;;;-145.01;100.00;59511.53;5096052;27;46333;-83
2021/07/08 06:03:29;;;;;;;;;8.75;8.75;;;;;-145.01;100.00;59511.53;5101820;27;45567;-83
2021/07/08 06:05:54;;;;;;;;;5.50;5.50;;;;;-145.01;100.00;59511.53;5098904;27;45820;-83
2021/07/08 06:08:23;;;;;;;;;4.50;4.50;;;;;-145.01;100.00;59511.53;5105627;27;45327;-84
2021/07/08 06:10:48;;;;;;;;;6.75;6.75;;;;;-145.01;100.00;59511.53;5095582;22;45284;-69
2021/07/08 06:13:13;;;;;;;;;5.50;5.50;;;;;-145.01;100.00;59511.53;5074631;27;45331;-69
2021/07/08 06:15:40;;;;;;;;;8.00;5.50;;;;;-145.01;100.00;59511.53;5074797;27;45292;-69
2021/07/08 06:18:06;;;;;;;;;6.75;5.75;;;;;-145.01;100.00;59511.53;5074907;27;45516;-69
2021/07/08 06:20:32;;;;;;;;;13.75;13.25;;;;;-145.01;100.00;59511.53;5074627;27;45410;-70
2021/07/08 06:22:57;;;;;;;;;6.00;5.75;;;;;-145.01;100.00;59511.53;5075031;27;45434;-69
2021/07/08 06:25:26;;;;;;;;;9.75;8.00;;;;;-145.01;100.00;59511.53;5074021;27;45350;-69
2021/07/08 06:27:51;;;;;;;;;4.25;4.25;;;;;-145.01;100.00;59511.53;5072135;28;45599;-69
2021/07/08 06:30:18;;;;;;;;;7.25;6.25;;;;;-145.01;100.00;59511.53;5074152;27;47428;-70
2021/07/08 06:32:43;;;;;;;;;12.25;10.00;;;;;-145.01;100.00;59511.53;5074170;27;45614;-69
2021/07/08 06:35:09;;;;;;;;;8.50;7.00;;;;;-145.01;100.00;59511.53;5074478;27;45384;-69
2021/07/08 06:37:37;;;;;;;;;7.75;7.25;;;;;-145.01;100.00;59511.53;5074772;27;45282;-70
2021/07/08 06:40:04;;;;;;;;;5.75;5.75;;;;;-145.01;100.00;59511.53;5073680;28;45410;-69
2021/07/08 06:42:29;;;;;;;;;4.50;4.50;;;;;-145.01;100.00;59511.53;5074277;27;45322;-70
2021/07/08 06:44:54;;;;;;;;;9.50;8.25;;;;;-145.01;100.00;59511.53;5073970;27;45422;-71
2021/07/08 06:47:21;;;;;;;;;12.00;8.75;;;;;-145.01;100.00;59511.53;5074198;27;45497;-69
2021/07/08 06:49:46;;;;;;;;;9.75;8.00;;;;;-145.01;100.00;59511.53;5074406;27;46998;-70
2021/07/08 06:52:14;;;;;;;;;8.75;6.50;;;;;-145.01;100.00;59511.53;5073174;27;45374;-71
2021/07/08 06:54:39;;;;;;;;;8.00;7.00;;;;;-145.01;100.00;59511.53;5073983;27;45521;-72
2021/07/08 06:57:05;;;;;;;;;11.50;10.50;;;;;-145.01;100.00;59511.53;5073358;27;45355;-72
2021/07/08 06:59:30;;;;;;;;;9.75;8.25;;;;;-145.01;100.00;59511.53;5073034;27;46616;-72
2021/07/08 07:01:56;;;;;;;;;11.00;6.00;;;;;-145.01;100.00;59511.53;5074043;27;45208;-71
2021/07/08 07:04:21;;;;;;;;;9.00;5.25;;;;;-145.01;100.00;59511.53;5073411;27;45322;-73
2021/07/08 07:06:47;;;;;;;;;6.00;5.00;;;;;-145.01;100.00;59511.53;5073939;27;45397;-73
2021/07/08 07:09:13;;;;;;;;;8.00;7.00;;;;;-145.01;100.00;59511.53;5073448;27;45355;-73
2021/07/08 07:11:39;;;;;;;;;8.00;6.00;;;;;-145.01;100.00;59511.53;5072891;27;45422;-72
2021/07/08 07:14:04;;;;;;;;;7.50;6.75;;;;;-145.01;100.00;59511.53;5074023;27;45461;-72
2021/07/08 07:16:29;;;;;;;;;8.25;5.00;;;;;-145.01;100.00;59511.53;5074385;27;45444;-72
2021/07/08 07:18:56;;;;;;;;;11.00;7.75;;;;;-145.01;100.00;59511.53;5068415;28;47157;-73
2021/07/08 07:21:21;;;;;;;;;6.00;5.75;;;;;-145.01;100.00;59511.53;5072019;27;45599;-73
2021/07/08 07:23:47;;;;;;;;;6.00;6.00;;;;;-145.01;100.00;59511.53;5074129;27;45456;-72
2021/07/08 07:26:13;;;;;;;;;6.25;4.75;;;;;-145.01;100.00;59511.53;5074557;27;45539;-72
2021/07/08 07:28:39;;;;;;;;;5.25;4.25;;;;;-145.01;100.00;59511.53;5077080;27;45512;-73
2021/07/08 07:31:06;;;;;;;;;10.50;9.00;;;;;-145.01;100.00;59511.53;5076806;27;45280;-72
2021/07/08 07:33:32;;;;;;;;;8.25;7.00;;;;;-145.01;100.00;59511.53;5077599;27;45256;-73
2021/07/08 07:35:57;;;;;;;;;6.00;6.00;;;;;-145.01;100.00;59511.53;5076983;27;45504;-73
2021/07/08 07:38:23;;;;;;;;;7.50;6.25;;;;;-145.01;100.00;59511.53;5077129;27;47190;-71
2021/07/08 07:40:48;;;;;;;;;9.50;9.50;;;;;-145.01;100.00;59511.53;5077237;27;45373;-75
2021/07/08 07:43:14;;;;;;;;;5.25;5.25;;;;;-145.01;100.00;59511.53;5076554;27;45535;-74
2021/07/08 07:45:40;;;;;;;;;11.75;8.00;;;;;-145.01;100.00;59511.53;5077407;27;45543;-72
2021/07/08 07:48:06;;;;;;;;;7.00;6.50;;;;;-145.01;100.00;59511.53;5077080;27;46080;-72
2021/07/08 07:50:32;;;;;;;;;5.25;5.25;;;;;-145.01;100.00;59511.53;5077311;27;45386;-72
2021/07/08 07:52:58;;;;;;;;;6.00;5.25;;;;;-145.01;100.00;59511.53;5076827;27;45499;-73
2021/07/08 07:55:27;;;;;;;;;6.00;6.00;;;;;-145.01;100.00;59511.53;5076745;27;45339;-73
2021/07/08 07:57:53;;;;;;;;;8.00;8.00;;;;;-145.01;100.00;59511.53;5072931;28;46517;-72
2021/07/08 08:00:18;;;;;;;;;12.50;8.25;;;;;-145.01;100.00;59511.53;5076477;27;45331;-72
2021/07/08 08:02:44;;;;;;;;;6.00;6.00;;;;;-145.01;100.00;59511.53;5077232;27;45585;-71
2021/07/08 08:10:25;;;;;;;;;5.25;5.00;;;;;-145.01;100.00;59511.53;5075006;27;45432;-72
2021/07/08 08:12:51;;;;;;;;;8.00;5.25;;;;;-145.01;100.00;59511.53;5075998;27;45412;-74
2021/07/08 08:15:18;;;;;;;;;9.00;8.75;;;;;-145.01;100.00;59511.53;5071653;27;45492;-72
2021/07/08 08:17:47;;;;;;;;;7.50;7.25;;;;;-145.01;100.00;59511.53;5069135;27;46268;-72
2021/07/08 08:20:14;;;;;;;;;6.75;6.75;;;;;-145.01;100.00;59511.53;5075005;27;45406;-70
2021/07/08 08:22:41;;;;;;;;;14.50;11.00;;;;;-145.01;100.00;59511.53;5060253;27;45318;-72
2021/07/08 08:25:08;;;;;;;;;4.75;4.75;;;;;-145.01;100.00;59511.53;5075638;27;45262;-72
2021/07/08 08:27:33;;;;;;;;;4.25;4.25;;;;;-145.01;100.00;59511.53;5076372;27;47027;-71
2021/07/08 08:29:58;;;;;;;;;9.25;6.00;;;;;-145.01;100.00;59511.53;5076538;27;45322;-69
2021/07/08 08:32:24;;;;;;;;;12.50;8.50;;;;;-145.01;100.00;59511.53;5076539;27;45528;-69
2021/07/08 08:34:49;;;;;;;;;9.00;6.25;;;;;-145.01;100.00;59511.53;5076912;27;45491;-70
2021/07/08 08:37:14;;;;;;;;;3.00;3.00;;;;;-145.01;100.00;59511.53;5075225;27;45418;-70
2021/07/08 08:39:40;;;;;;;;;7.00;6.00;;;;;-145.01;100.00;59511.53;5075737;27;45461;-70
2021/07/08 08:42:07;;;;;;;;;12.00;10.00;;;;;-145.01;100.00;59511.53;5076141;27;45419;-69
2021/07/08 08:44:33;;;;;;;;;6.25;5.00;;;;;-145.01;100.00;59511.53;5076486;27;45580;-70
2021/07/08 08:46:58;;;;;;;;;4.75;4.00;;;;;-145.01;100.00;59511.53;5076654;27;45464;-71
2021/07/08 08:49:23;;;;;;;;;4.50;3.25;;;;;-145.01;100.00;59511.53;5076730;27;45587;-70
2021/07/08 08:51:50;;;;;;;;;5.00;4.00;;;;;-145.01;100.00;59511.53;5074574;27;45388;-70
2021/07/08 08:54:16;;;;;;;;;2.67;2.67;;;;;-145.01;100.00;59511.53;5075520;27;45430;-70
2021/07/08 08:56:42;;;;;;;;;7.67;6.00;;;;;-145.01;100.00;59511.53;5076168;27;45369;-70
2021/07/08 08:59:07;;;;;;;;;7.00;6.00;;;;;-145.01;100.00;59511.53;5076293;27;45441;-70
2021/07/08 09:01:34;;;;;;;;;8.00;5.75;;;;;-145.01;100.00;59511.53;5076373;27;45402;-70
2021/07/08 09:04:00;;;;;;;;;3.33;3.33;;;;;-145.01;100.00;59511.53;5070829;28;45325;-70
2021/07/08 09:06:34;;;;;;;;;6.00;4.75;;;;;-145.01;100.00;59511.53;5074451;27;46552;-69
2021/07/08 09:09:08;;;;;;;;;2.25;0.25;;;;;-145.01;100.00;59511.53;5075587;27;45536;-70
2021/07/08 09:11:35;;;;;;;;;8.00;8.00;;;;;-145.01;100.00;59511.53;5076278;27;45678;-72
2021/07/08 09:14:04;;;;;;;;;7.75;6.75;;;;;-145.01;100.00;59511.53;5076467;27;45535;-69
2021/07/08 09:16:35;;;;;;;;;7.50;6.25;;;;;-145.01;100.00;59511.53;5075918;27;45361;-70
2021/07/08 09:19:02;;;;;;;;;40.50;33.00;;;;;-145.01;100.00;59511.53;5075118;27;45393;-71
2021/07/08 09:21:29;;;;;;;;;8.75;8.75;;;;;-145.01;100.00;59511.53;5075980;27;45486;-71
2021/07/08 09:24:06;;;;;;;;;5.67;5.67;;;;;-145.01;100.00;59511.53;5075726;27;45543;-69
2021/07/08 09:26:33;;;;;;;;;5.67;4.33;;;;;-145.01;100.00;59511.53;5075723;27;47359;-70
2021/07/08 09:29:03;;;;;;;;;4.67;4.00;;;;;-145.01;100.00;59511.53;5075829;27;45368;-70
2021/07/08 09:31:29;;;;;;;;;5.67;4.33;;;;;-145.01;100.00;59511.53;5076158;27;45521;-70
2021/07/08 09:33:54;;;;;;;;;3.00;3.00;;;;;-145.01;100.00;59511.53;5075386;28;45412;-71
2021/07/08 09:36:19;;;;;;;;;6.33;4.67;;;;;-145.01;100.00;59511.53;5075207;27;47031;-71
2021/07/08 09:38:47;;;;;;;;;12.75;11.25;;;;;-145.01;100.00;59511.53;5075378;27;45325;-71
2021/07/08 09:41:18;;;;;;;;;13.00;8.00;;;;;-145.01;100.00;59511.53;5075646;27;45343;-71
2021/07/08 09:43:45;;;;;;;;;6.67;6.00;;;;;-145.01;100.00;59511.53;5058421;27;45370;-71
2021/07/08 09:46:13;;;;;;;;;5.33;5.33;;;;;-145.01;100.00;59511.53;5073488;28;47771;-71
2021/07/08 09:48:39;;;;;;;;;9.00;6.33;;;;;-145.01;100.00;59511.53;5076391;27;45470;-71
2021/07/08 09:51:06;;;;;;;;;6.00;5.00;;;;;-145.01;100.00;59511.53;5075030;27;45406;-71
2021/07/08 09:53:40;;;;;;;;;4.00;4.00;;;;;-145.01;100.00;59511.53;5075038;27;49737;-70
2021/07/08 09:58:57;;;;;;;;;3.33;3.00;;;;;-145.01;100.00;59511.53;5059390;27;46161;-71
2021/07/08 10:01:24;;;;;;;;;5.00;3.67;;;;;-145.01;100.00;59511.53;5075116;27;45437;-71
2021/07/08 10:03:50;;;;;;;;;5.00;5.00;;;;;-145.01;100.00;59511.53;5074654;27;45421;-71
2021/07/08 10:06:17;;;;;;;;;5.00;4.00;;;;;-145.01;100.00;59511.53;5075079;27;46351;-71
2021/07/08 10:08:43;;;;;;;;;6.33;6.00;;;;;-145.01;100.00;59511.53;5074771;27;45464;-70
2021/07/08 10:11:14;;;;;;;;;3.00;3.00;;;;;-145.01;100.00;59511.53;5075198;27;45477;-71
2021/07/08 10:13:40;;;;;;;;;5.00;5.00;;;;;-145.01;100.00;59511.53;5058855;27;45466;-71
2021/07/08 10:16:06;;;;;;;;;3.67;3.67;;;;;-145.01;100.00;59511.53;5069406;28;45501;-72
2021/07/08 10:18:36;;;;;;;;;4.00;4.00;;;;;-145.01;100.00;59511.53;5076188;27;45420;-72
2021/07/08 10:21:03;;;;;;;;;7.67;6.33;;;;;-145.01;100.00;59511.53;5074743;27;45419;-70
2021/07/08 10:23:34;;;;;;;;;4.67;3.33;;;;;-145.01;100.00;59511.53;5075165;27;45493;-71
2021/07/08 10:26:00;;;;;;;;;4.00;4.00;;;;;-145.01;100.00;59511.53;5074962;27;47134;-71
2021/07/08 10:28:30;;;;;;;;;6.00;5.00;;;;;-145.01;100.00;59511.53;5074604;27;45642;-69
2021/07/08 10:30:57;;;;;;;;;5.00;4.00;;;;;-145.01;100.00;59511.53;5074304;27;45377;-69
2021/07/08 10:33:23;;;;;;;;;7.33;6.00;;;;;-145.01;100.00;59511.53;5076257;27;45432;-71
2021/07/08 10:35:51;;;;;;;;;7.00;6.00;;;;;-145.01;100.00;59511.53;5073976;27;47152;-71
2021/07/08 10:38:36;;;;;;;;;3.67;3.67;;;;;-145.01;100.00;59511.53;5074250;27;45420;-70
2021/07/08 10:41:11;;;;;;;;;9.00;8.50;;;;;-145.01;100.00;59511.53;5074350;27;45749;-69
2021/07/08 10:43:39;;;;;;;;;7.67;6.00;;;;;-145.01;100.00;59511.53;5074711;27;45293;-72
2021/07/08 10:46:07;;;;;;;;;4.33;3.00;;;;;-145.01;100.00;59511.53;5073681;27;45428;-72
2021/07/08 10:48:50;;;;;;;;;8.00;5.00;;;;;-145.01;100.00;59511.53;5074841;27;45427;-71
2021/07/08 10:51:27;;;;;;;;;4.67;4.00;;;;;-145.01;100.00;59511.53;5074121;27;45435;-70
2021/07/08 10:53:53;;;;;;;;;9.00;6.00;;;;;-145.01;100.00;59511.53;5074123;27;45615;-72
2021/07/08 10:56:31;;;;;;;;;7.00;5.33;;;;;-145.01;100.00;59511.53;5074438;27;46065;-72
2021/07/08 10:58:57;;;;;;;;;6.00;5.00;;;;;-145.01;100.00;59511.53;5071751;27;45502;-72
2021/07/08 11:01:22;;;;;;;;;11.25;10.00;;;;;-145.01;100.00;59511.53;5076060;27;45439;-71
2021/07/08 11:04:02;;;;;;;;;10.00;8.33;;;;;-145.01;100.00;59511.53;5077772;27;45476;-73
2021/07/08 11:06:33;;;;;;;;;6.33;6.00;;;;;-145.01;100.00;59511.53;5077238;27;46240;-72
2021/07/08 11:09:00;;;;;;;;;4.33;4.00;;;;;-145.01;100.00;59511.53;5077394;27;45390;-71
2021/07/08 11:11:25;;;;;;;;;5.00;5.00;;;;;-145.01;100.00;59511.53;5077113;27;45489;-72
2021/07/08 11:13:52;;;;;;;;;4.00;4.00;;;;;-145.01;100.00;59511.53;5077557;27;45338;-71